createdAt,value
2019-03-18T00:00:26.997Z,14.28
2019-03-18T00:05:24.077Z,14.44
2019-03-18T00:10:21.186Z,14.80
2019-03-18T00:15:18.230Z,14.97
2019-03-18T00:20:16.103Z,15.04
2019-03-18T00:25:14.454Z,15.05
2019-03-18T00:30:15.005Z,14.96
2019-03-18T00:35:12.443Z,15.26
2019-03-18T00:40:15.880Z,15.23
2019-03-18T00:45:15.094Z,15.25
2019-03-18T00:50:13.829Z,15.28
2019-03-18T00:55:11.005Z,15.41
2019-03-18T01:00:13.414Z,15.42
2019-03-18T01:05:10.762Z,15.45
2019-03-18T01:10:12.633Z,15.59
2019-03-18T01:15:10.715Z,15.52
2019-03-18T01:20:09.993Z,15.42
2019-03-18T01:25:08.760Z,15.42
2019-03-18T01:30:11.658Z,15.27
2019-03-18T01:35:09.463Z,15.09
2019-03-18T01:40:14.298Z,15.21
2019-03-18T01:45:12.282Z,15.23
2019-03-18T01:50:11.484Z,15.13
2019-03-18T01:55:09.326Z,15.21
2019-03-18T02:00:12.523Z,15.04
2019-03-18T02:05:10.302Z,15.04
2019-03-18T02:10:10.916Z,15.03
2019-03-18T02:15:10.524Z,15.17
2019-03-18T02:20:10.935Z,15.21
2019-03-18T02:25:09.320Z,15.05
2019-03-18T02:30:18.243Z,15.11
2019-03-18T02:35:15.628Z,14.98
2019-03-18T02:40:12.710Z,14.84
2019-03-18T02:45:10.549Z,14.55
2019-03-18T02:50:09.087Z,14.76
2019-03-18T02:55:07.490Z,14.80
2019-03-18T03:00:11.335Z,14.86
2019-03-18T03:05:10.623Z,14.90
2019-03-18T03:10:10.488Z,14.86
2019-03-18T03:15:13.307Z,14.86
2019-03-18T03:20:10.796Z,14.86
2019-03-18T03:25:09.491Z,14.90
2019-03-18T03:30:13.624Z,14.99
2019-03-18T03:35:10.912Z,14.85
2019-03-18T03:40:10.185Z,14.80
2019-03-18T03:45:10.531Z,14.59
2019-03-18T03:50:11.706Z,14.60
2019-03-18T03:55:10.772Z,14.49
2019-03-18T04:00:11.081Z,14.27
2019-03-18T04:05:08.431Z,14.38
2019-03-18T04:10:12.545Z,13.83
2019-03-18T04:15:14.721Z,13.56
2019-03-18T04:20:16.013Z,12.84
2019-03-18T04:25:13.155Z,12.14
2019-03-18T04:30:14.356Z,11.76
2019-03-18T04:35:11.396Z,11.36
2019-03-18T04:40:09.939Z,11.14
2019-03-18T04:45:08.814Z,10.73
2019-03-18T04:50:09.268Z,10.52
2019-03-18T04:55:08.044Z,10.60
2019-03-18T05:00:12.471Z,10.47
2019-03-18T05:05:11.524Z,10.50
2019-03-18T05:10:09.465Z,10.40
2019-03-18T05:15:08.710Z,10.45
2019-03-18T05:20:10.528Z,10.39
2019-03-18T05:25:08.915Z,10.47
2019-03-18T05:30:13.200Z,10.40
2019-03-18T05:35:10.335Z,10.42
2019-03-18T05:40:07.774Z,10.31
2019-03-18T05:45:10.150Z,10.26
2019-03-18T05:50:11.948Z,10.31
2019-03-18T05:55:09.302Z,10.10
2019-03-18T06:00:12.509Z,10.16
2019-03-18T06:05:11.534Z,10.33
2019-03-18T06:10:11.182Z,10.28
2019-03-18T06:15:10.978Z,10.09
2019-03-18T06:20:09.714Z,10.27
2019-03-18T06:25:07.915Z,10.34
2019-03-18T06:30:16.571Z,10.47
2019-03-18T06:35:15.343Z,10.30
2019-03-18T06:40:15.230Z,10.33
2019-03-18T06:45:12.379Z,10.41
2019-03-18T06:50:10.797Z,10.33
2019-03-18T06:55:07.948Z,10.29
2019-03-18T07:00:10.371Z,10.18
2019-03-18T07:05:08.775Z,10.10
2019-03-18T07:10:11.098Z,10.05
2019-03-18T07:15:14.790Z,9.99
2019-03-18T07:20:14.807Z,9.98
2019-03-18T07:25:13.735Z,9.88
2019-03-18T07:30:14.338Z,9.94
2019-03-18T07:35:16.603Z,9.89
2019-03-18T07:40:15.215Z,9.92
2019-03-18T07:45:15.641Z,9.83
2019-03-18T07:50:16.196Z,9.69
2019-03-18T07:55:17.492Z,9.80
2019-03-18T08:00:17.848Z,9.59
2019-03-18T08:05:15.030Z,9.43
2019-03-18T08:10:14.973Z,9.46
2019-03-18T08:15:14.730Z,9.54
2019-03-18T08:20:17.287Z,9.50
2019-03-18T08:25:14.371Z,9.52
2019-03-18T08:30:20.641Z,9.54
2019-03-18T08:35:19.581Z,9.53
2019-03-18T08:40:16.736Z,9.43
2019-03-18T08:45:13.784Z,9.52
2019-03-18T08:50:12.881Z,9.54
2019-03-18T08:55:13.616Z,9.54
2019-03-18T09:00:15.204Z,9.71
2019-03-18T09:05:14.171Z,9.63
2019-03-18T09:10:15.284Z,9.40
2019-03-18T09:15:12.584Z,9.37
2019-03-18T09:20:13.218Z,9.37
2019-03-18T09:25:10.985Z,9.48
2019-03-18T09:30:15.058Z,9.41
2019-03-18T09:35:12.729Z,9.54
2019-03-18T09:40:15.537Z,9.33
2019-03-18T09:45:16.977Z,9.71
2019-03-18T09:50:14.977Z,9.57
2019-03-18T09:55:12.203Z,9.54
2019-03-18T10:00:15.451Z,9.37
2019-03-18T10:05:12.753Z,9.53
2019-03-18T10:10:16.319Z,9.64
2019-03-18T10:15:20.329Z,9.54
2019-03-18T10:20:17.275Z,9.47
2019-03-18T10:25:14.405Z,9.57
2019-03-18T10:30:13.252Z,9.43
2019-03-18T10:35:13.591Z,9.54
2019-03-18T10:40:13.400Z,9.63
2019-03-18T10:45:11.864Z,9.66
2019-03-18T10:50:13.875Z,9.66
2019-03-18T10:55:11.759Z,9.73
2019-03-18T11:00:17.841Z,9.83
2019-03-18T11:05:21.277Z,9.86
2019-03-18T11:10:18.325Z,9.76
2019-03-18T11:15:18.518Z,9.83
2019-03-18T11:20:17.483Z,9.82
2019-03-18T11:25:15.875Z,9.78
2019-03-18T11:30:16.010Z,9.82
2019-03-18T11:35:16.900Z,9.91
2019-03-18T11:40:20.013Z,10.03
2019-03-18T11:45:17.357Z,9.98
2019-03-18T11:50:18.721Z,10.05
2019-03-18T11:55:29.039Z,10.17
2019-03-18T12:00:26.090Z,10.14
2019-03-18T12:05:27.274Z,10.08
2019-03-18T12:10:42.900Z,10.15
2019-03-18T12:15:44.715Z,9.97
2019-03-18T12:20:47.903Z,9.98
2019-03-18T12:25:40.722Z,10.19
2019-03-18T12:30:37.853Z,10.02
2019-03-18T12:35:44.030Z,9.98
2019-03-18T12:40:41.096Z,10.00
2019-03-18T12:45:39.752Z,9.88
2019-03-18T12:50:54.462Z,9.82
2019-03-18T12:55:36.211Z,9.69
2019-03-18T13:00:34.347Z,9.80
2019-03-18T13:05:38.156Z,9.83
2019-03-18T13:10:36.799Z,9.78
2019-03-18T13:15:35.824Z,9.73
2019-03-18T13:20:41.368Z,9.60
2019-03-18T13:25:38.982Z,9.64
2019-03-18T13:30:36.175Z,9.45
2019-03-18T13:35:33.529Z,9.49
2019-03-18T13:40:30.703Z,9.55
2019-03-18T13:45:34.500Z,9.64
2019-03-18T13:50:34.064Z,9.57
2019-03-18T13:55:37.524Z,9.49
2019-03-18T14:00:39.187Z,9.48
2019-03-18T14:05:37.397Z,9.22
2019-03-18T14:10:36.977Z,9.30
2019-03-18T14:15:40.091Z,9.36
2019-03-18T14:21:33.361Z,9.32
2019-03-18T14:25:59.198Z,9.26
2019-03-18T14:30:56.338Z,9.34
2019-03-18T14:35:54.732Z,9.43
2019-03-18T14:40:53.798Z,9.48
2019-03-18T14:45:54.825Z,9.47
2019-03-18T14:50:52.082Z,9.41
2019-03-18T14:55:54.545Z,9.27
2019-03-18T15:00:51.828Z,9.37
2019-03-18T15:05:49.343Z,9.28
2019-03-18T15:10:46.559Z,9.33
2019-03-18T15:16:01.166Z,9.27
2019-03-18T15:20:58.881Z,9.22
2019-03-18T15:26:44.846Z,8.97
2019-03-18T15:32:13.778Z,8.75
2019-03-18T15:37:14.656Z,8.62
2019-03-18T15:42:50.103Z,8.52
2019-03-18T15:48:29.517Z,8.39
2019-03-18T15:53:32.421Z,8.32
2019-03-18T15:59:05.781Z,8.45
2019-03-18T16:03:55.891Z,8.45
2019-03-18T16:09:02.890Z,8.51
2019-03-18T16:20:07.360Z,8.51
2019-03-18T16:25:10.714Z,8.16
2019-03-18T16:36:47.853Z,8.18
2019-03-18T16:41:41.675Z,7.93
2019-03-18T16:47:53.071Z,8.30
2019-03-18T16:58:06.011Z,8.35
2019-03-18T17:09:30.245Z,8.50
2019-03-18T17:14:39.234Z,8.55
2019-03-18T17:20:06.701Z,8.61
2019-03-18T17:25:11.406Z,8.39
2019-03-18T17:30:22.448Z,8.58
2019-03-18T17:41:10.939Z,8.80
2019-03-18T17:57:47.912Z,8.56
2019-03-18T18:02:52.954Z,8.54
2019-03-18T18:07:53.665Z,8.66
2019-03-18T18:12:54.639Z,8.66
2019-03-18T18:17:57.109Z,8.64
2019-03-18T18:23:14.668Z,8.71
2019-03-18T18:28:20.714Z,8.70
2019-03-18T18:33:29.605Z,8.54
2019-03-18T19:38:57.727Z,7.97
2019-03-18T19:51:05.048Z,8.10
2019-03-18T20:08:32.559Z,7.89
2019-03-18T22:00:50.968Z,7.40
2019-03-18T22:13:02.961Z,7.28
2019-03-18T23:17:06.806Z,6.90
